createdAt,value
2022-12-07T00:00:15.311Z,0.41
2022-12-07T00:03:48.480Z,0.38
2022-12-07T00:07:42.926Z,0.40
2022-12-07T00:11:24.432Z,0.44
2022-12-07T00:15:05.692Z,0.44
2022-12-07T00:18:46.581Z,0.42
2022-12-07T00:22:27.520Z,0.38
2022-12-07T00:25:50.263Z,0.37
2022-12-07T00:29:45.883Z,0.36
2022-12-07T00:33:07.692Z,0.40
2022-12-07T00:37:04.286Z,0.40
2022-12-07T00:40:54.864Z,0.43
2022-12-07T00:44:35.256Z,0.40
2022-12-07T00:47:57.029Z,0.37
2022-12-07T00:51:34.723Z,0.41
2022-12-07T00:55:37.384Z,0.40
2022-12-07T00:59:17.859Z,0.45
2022-12-07T01:02:58.692Z,0.48
2022-12-07T01:06:39.383Z,0.49
2022-12-07T01:10:01.673Z,0.48
2022-12-07T01:13:39.195Z,0.50
2022-12-07T01:17:35.529Z,0.52
2022-12-07T01:21:22.062Z,0.55
2022-12-07T01:24:44.079Z,0.54
2022-12-07T01:28:21.800Z,0.54
2022-12-07T01:31:59.472Z,0.53
2022-12-07T01:35:37.075Z,0.47
2022-12-07T01:39:14.966Z,0.42
2022-12-07T01:42:52.473Z,0.40
2022-12-07T01:46:30.143Z,0.35
2022-12-07T01:50:08.325Z,0.37
2022-12-07T01:53:46.552Z,0.38
2022-12-07T01:57:46.156Z,0.40
2022-12-07T02:01:26.812Z,0.41
2022-12-07T02:04:48.701Z,0.39
2022-12-07T02:08:46.249Z,0.38
2022-12-07T02:12:07.879Z,0.37
2022-12-07T02:15:56.684Z,0.42
2022-12-07T02:19:26.194Z,0.44
2022-12-07T02:23:13.150Z,0.47
2022-12-07T02:27:32.346Z,0.48
2022-12-07T02:30:59.787Z,0.45
2022-12-07T02:34:37.630Z,0.46
2022-12-07T02:38:40.131Z,0.42
2022-12-07T02:42:10.796Z,0.43
2022-12-07T02:45:42.645Z,0.50
2022-12-07T02:49:18.256Z,0.53
2022-12-07T02:53:29.210Z,0.56
2022-12-07T02:57:09.926Z,0.54
2022-12-07T03:00:37.925Z,0.51
2022-12-07T03:04:31.086Z,0.47
2022-12-07T03:08:49.704Z,0.43
2022-12-07T03:12:19.785Z,0.45
2022-12-07T03:15:52.246Z,0.45
2022-12-07T03:19:28.893Z,0.49
2022-12-07T03:23:10.632Z,0.56
2022-12-07T03:26:48.914Z,0.57
2022-12-07T03:30:23.756Z,0.56
2022-12-07T03:34:22.309Z,0.52
2022-12-07T03:37:53.557Z,0.51
2022-12-07T03:41:34.872Z,0.47
2022-12-07T03:44:59.823Z,0.47
2022-12-07T03:49:00.788Z,0.45
2022-12-07T03:52:29.080Z,0.47
2022-12-07T03:56:22.060Z,0.49
2022-12-07T03:59:44.296Z,0.48
2022-12-07T04:03:40.148Z,0.45
2022-12-07T04:07:04.001Z,0.43
2022-12-07T04:10:58.798Z,0.46
2022-12-07T04:14:20.712Z,0.43
2022-12-07T04:17:58.416Z,0.45
2022-12-07T04:21:35.948Z,0.45
2022-12-07T04:25:13.888Z,0.39
2022-12-07T04:28:51.493Z,0.36
2022-12-07T04:32:47.992Z,0.32
2022-12-07T04:36:09.882Z,0.29
2022-12-07T04:39:48.236Z,0.29
2022-12-07T04:43:25.192Z,0.33
2022-12-07T04:47:21.900Z,0.35
2022-12-07T04:50:46.338Z,0.36
2022-12-07T04:54:40.461Z,0.37
2022-12-07T04:58:02.511Z,0.33
2022-12-07T05:01:40.220Z,0.30
2022-12-07T05:05:17.777Z,0.28
2022-12-07T05:08:55.846Z,0.27
2022-12-07T05:12:32.944Z,0.28
2022-12-07T05:16:10.843Z,0.30
2022-12-07T05:19:48.280Z,0.31
2022-12-07T05:23:26.076Z,0.29
2022-12-07T05:27:22.897Z,0.25
2022-12-07T05:30:44.826Z,0.25
2022-12-07T05:34:22.730Z,0.27
2022-12-07T05:38:00.133Z,0.27
2022-12-07T05:42:07.126Z,0.26
2022-12-07T05:45:48.495Z,0.23
2022-12-07T05:49:10.364Z,0.20
2022-12-07T05:53:07.006Z,0.23
2022-12-07T05:56:28.761Z,0.21
2022-12-07T06:00:07.373Z,0.26
2022-12-07T06:03:43.966Z,0.30
2022-12-07T06:07:40.644Z,0.28
2022-12-07T06:11:21.247Z,0.30
2022-12-07T06:14:44.156Z,0.29
2022-12-07T06:18:21.232Z,0.31
2022-12-07T06:21:59.820Z,0.34
2022-12-07T06:25:36.722Z,0.33
2022-12-07T06:29:15.293Z,0.30
2022-12-07T06:33:10.888Z,0.23
2022-12-07T06:36:32.826Z,0.21
2022-12-07T06:40:10.724Z,0.21
2022-12-07T06:44:07.286Z,0.22
2022-12-07T06:47:48.287Z,0.27
2022-12-07T06:51:11.084Z,0.28
2022-12-07T06:54:48.026Z,0.28
2022-12-07T06:58:44.803Z,0.25
2022-12-07T07:02:25.527Z,0.21
2022-12-07T07:05:47.931Z,0.19
2022-12-07T07:09:24.933Z,0.19
2022-12-07T07:13:03.580Z,0.22
2022-12-07T07:16:40.464Z,0.27
2022-12-07T07:20:37.345Z,0.30
2022-12-07T07:23:59.496Z,0.27
2022-12-07T07:27:37.104Z,0.25
2022-12-07T07:31:14.787Z,0.22
2022-12-07T07:34:52.497Z,0.23
2022-12-07T07:38:30.116Z,0.25
2022-12-07T07:42:08.642Z,0.27
2022-12-07T07:45:45.507Z,0.28
2022-12-07T07:49:47.687Z,0.27
2022-12-07T07:53:28.977Z,0.29
2022-12-07T07:56:50.929Z,0.28
2022-12-07T08:00:47.678Z,0.26
2022-12-07T08:04:09.498Z,0.26
2022-12-07T08:07:47.172Z,0.30
2022-12-07T08:11:43.826Z,0.31
2022-12-07T08:15:06.335Z,0.34
2022-12-07T08:18:43.689Z,0.34
2022-12-07T08:22:21.025Z,0.31
2022-12-07T08:26:07.598Z,0.31
2022-12-07T08:29:55.252Z,0.33
2022-12-07T08:33:17.216Z,0.32
2022-12-07T08:36:54.754Z,0.36
2022-12-07T08:40:32.823Z,0.40
2022-12-07T08:44:10.316Z,0.44
2022-12-07T08:48:07.391Z,0.42
2022-12-07T08:51:29.594Z,0.40
2022-12-07T08:55:07.853Z,0.40
2022-12-07T08:58:45.304Z,0.40
2022-12-07T09:02:41.573Z,0.42
2022-12-07T09:06:23.008Z,0.40
2022-12-07T09:10:05.627Z,0.39
2022-12-07T09:13:46.931Z,0.39
2022-12-07T09:17:12.148Z,0.35
2022-12-07T09:20:46.671Z,0.37
2022-12-07T09:24:24.968Z,0.38
2022-12-07T09:28:02.080Z,0.38
2022-12-07T09:31:39.834Z,0.42
2022-12-07T09:35:17.436Z,0.41
2022-12-07T09:39:13.979Z,0.45
2022-12-07T09:42:56.311Z,0.48
2022-12-07T09:46:20.946Z,0.51
2022-12-07T09:50:22.252Z,0.59
2022-12-07T09:53:45.924Z,0.61
2022-12-07T09:57:33.048Z,0.66
2022-12-07T10:01:20.900Z,0.72
2022-12-07T10:04:45.910Z,0.77
2022-12-07T10:08:21.864Z,0.76
2022-12-07T10:12:02.148Z,0.76
2022-12-07T10:16:06.788Z,0.78
2022-12-07T10:19:34.155Z,0.81
2022-12-07T10:23:16.186Z,0.80
2022-12-07T10:26:52.882Z,0.79
2022-12-07T10:30:22.886Z,0.81
2022-12-07T10:34:02.993Z,0.83
2022-12-07T10:37:42.458Z,0.87
2022-12-07T10:41:15.904Z,0.90
2022-12-07T10:45:12.821Z,0.95
2022-12-07T10:48:43.195Z,0.94
2022-12-07T10:53:09.045Z,0.99
2022-12-07T10:56:52.589Z,1.03
2022-12-07T11:00:32.706Z,1.11
2022-12-07T11:04:47.638Z,1.12
2022-12-07T11:08:31.694Z,1.13
2022-12-07T11:12:04.337Z,1.16
2022-12-07T11:16:01.089Z,1.19
2022-12-07T11:20:02.988Z,1.24
2022-12-07T11:23:34.109Z,1.24
2022-12-07T11:27:08.903Z,1.27
2022-12-07T11:31:35.051Z,1.25
2022-12-07T11:35:06.363Z,1.28
2022-12-07T11:38:42.910Z,1.30
2022-12-07T11:42:23.643Z,1.36
2022-12-07T11:46:15.187Z,1.39
2022-12-07T11:49:55.810Z,1.47
2022-12-07T11:53:27.784Z,1.51
2022-12-07T11:57:00.293Z,1.59
2022-12-07T12:00:35.073Z,1.80
2022-12-07T12:04:10.696Z,2.05
2022-12-07T12:16:47.252Z,4.67
2022-12-07T12:20:47.412Z,4.71
2022-12-07T12:24:22.647Z,3.94
2022-12-07T12:27:50.126Z,3.44
2022-12-07T12:31:44.912Z,3.40
2022-12-07T12:35:37.168Z,3.64
2022-12-07T12:39:09.256Z,3.14
2022-12-07T12:42:59.211Z,2.93
2022-12-07T12:46:50.287Z,2.82
2022-12-07T12:50:36.001Z,3.72
2022-12-07T12:54:15.085Z,4.64
2022-12-07T12:57:38.271Z,5.33
2022-12-07T13:01:41.320Z,4.57
2022-12-07T13:05:27.631Z,3.87
2022-12-07T13:08:49.410Z,3.28
2022-12-07T13:12:27.175Z,2.91
2022-12-07T13:16:10.553Z,2.64
2022-12-07T13:19:41.999Z,2.49
2022-12-07T13:23:44.995Z,2.36
2022-12-07T13:27:11.908Z,2.26
2022-12-07T13:30:59.668Z,2.16
2022-12-07T13:34:42.404Z,2.13
2022-12-07T13:38:23.398Z,2.03
2022-12-07T13:41:51.243Z,1.97
2022-12-07T13:45:46.248Z,1.95
2022-12-07T13:49:23.364Z,1.93
2022-12-07T13:52:47.204Z,1.94
2022-12-07T13:56:43.599Z,1.95
2022-12-07T14:00:16.379Z,1.95
2022-12-07T14:03:43.700Z,1.94
2022-12-07T14:07:29.621Z,1.87
2022-12-07T14:11:20.758Z,1.85
2022-12-07T14:14:48.893Z,1.81
2022-12-07T14:18:40.989Z,1.81
2022-12-07T14:22:18.911Z,1.81
2022-12-07T14:25:53.613Z,1.80
2022-12-07T14:29:38.119Z,1.74
2022-12-07T14:33:19.830Z,1.71
2022-12-07T14:37:00.726Z,1.70
2022-12-07T14:40:28.991Z,1.70
2022-12-07T14:44:24.749Z,1.69
2022-12-07T14:55:32.832Z,1.57
2022-12-07T14:59:28.332Z,1.57
2022-12-07T15:02:51.996Z,1.53
2022-12-07T15:06:28.332Z,1.51
2022-12-07T15:10:08.186Z,1.48
2022-12-07T15:14:04.240Z,1.45
2022-12-07T15:17:31.984Z,1.43
2022-12-07T15:21:05.546Z,1.43
2022-12-07T15:24:42.480Z,1.42
2022-12-07T15:28:41.600Z,1.35
2022-12-07T15:32:23.529Z,1.34
2022-12-07T15:36:04.368Z,1.34
2022-12-07T15:39:26.066Z,1.36
2022-12-07T15:43:41.845Z,1.35
2022-12-07T15:47:22.599Z,1.33
2022-12-07T15:50:44.417Z,1.29
2022-12-07T15:54:40.961Z,1.25
2022-12-07T15:58:02.684Z,1.25
2022-12-07T16:01:59.244Z,1.25
2022-12-07T16:05:40.120Z,1.25
2022-12-07T16:09:21.626Z,1.27
2022-12-07T16:12:43.662Z,1.28
2022-12-07T16:16:23.475Z,1.27
2022-12-07T16:20:18.100Z,1.24
2022-12-07T16:23:59.686Z,1.25
2022-12-07T16:27:22.270Z,1.25
2022-12-07T16:31:13.702Z,1.25
2022-12-07T16:34:37.654Z,1.27
2022-12-07T16:38:14.979Z,1.24
2022-12-07T16:41:53.888Z,1.22
2022-12-07T16:45:49.195Z,1.21
2022-12-07T16:49:15.102Z,1.22
2022-12-07T16:52:50.625Z,1.20
2022-12-07T16:56:30.135Z,1.19
2022-12-07T17:00:25.021Z,1.17
2022-12-07T17:04:05.978Z,1.13
2022-12-07T17:07:27.888Z,1.19
2022-12-07T17:11:27.797Z,1.18
2022-12-07T17:15:08.244Z,1.18
2022-12-07T17:18:49.719Z,1.12
2022-12-07T17:22:30.577Z,1.14
2022-12-07T17:25:52.691Z,1.11
2022-12-07T17:29:30.200Z,1.11
2022-12-07T17:33:08.045Z,1.11
2022-12-07T17:36:48.640Z,1.05
2022-12-07T17:40:42.323Z,1.02
2022-12-07T17:44:06.568Z,0.99
2022-12-07T17:47:41.777Z,0.98
2022-12-07T17:51:38.010Z,0.97
2022-12-07T17:55:19.459Z,0.96
2022-12-07T17:58:43.244Z,0.95
2022-12-07T18:02:39.938Z,0.95
2022-12-07T18:06:02.155Z,0.97
2022-12-07T18:09:39.981Z,0.97
2022-12-07T18:13:35.755Z,0.96
2022-12-07T18:16:58.399Z,0.92
2022-12-07T18:20:36.871Z,0.91
2022-12-07T18:24:36.660Z,0.91
2022-12-07T18:28:17.702Z,0.88
2022-12-07T18:31:59.037Z,0.84
2022-12-07T18:35:39.777Z,0.81
2022-12-07T18:39:20.621Z,0.76
2022-12-07T18:42:43.925Z,0.70
2022-12-07T18:46:41.736Z,0.66
2022-12-07T18:50:03.906Z,0.58
2022-12-07T18:54:01.742Z,0.60
2022-12-07T18:57:42.431Z,0.57
2022-12-07T19:01:04.383Z,0.58
2022-12-07T19:04:41.974Z,0.55
2022-12-07T19:08:19.982Z,0.52
2022-12-07T19:12:01.256Z,0.49
2022-12-07T19:15:35.317Z,0.45
2022-12-07T19:19:12.677Z,0.45
2022-12-07T19:22:50.633Z,0.42
2022-12-07T19:26:47.084Z,0.39
2022-12-07T19:30:27.973Z,0.39
2022-12-07T19:34:15.636Z,0.40
2022-12-07T19:37:38.230Z,0.37
2022-12-07T19:41:34.125Z,0.34
2022-12-07T19:45:15.696Z,0.33
2022-12-07T19:48:57.782Z,0.35
2022-12-07T19:52:38.684Z,0.40
2022-12-07T19:56:01.480Z,0.41
2022-12-07T19:59:57.670Z,0.42
2022-12-07T20:03:20.039Z,0.38
2022-12-07T20:07:16.313Z,0.35
2022-12-07T20:10:58.128Z,0.34
2022-12-07T20:14:20.389Z,0.38
2022-12-07T20:17:57.972Z,0.38
2022-12-07T20:21:54.258Z,0.40
2022-12-07T20:25:36.260Z,0.38
2022-12-07T20:29:21.976Z,0.39
2022-12-07T20:32:43.967Z,0.36
2022-12-07T20:36:43.162Z,0.33
2022-12-07T20:40:06.055Z,0.33
2022-12-07T20:43:43.169Z,0.29
2022-12-07T20:47:23.154Z,0.30
2022-12-07T20:51:06.060Z,0.29
2022-12-07T20:54:37.135Z,0.29
2022-12-07T20:58:32.251Z,0.26
2022-12-07T21:01:53.938Z,0.21
2022-12-07T21:05:31.600Z,0.17
2022-12-07T21:09:13.142Z,0.15
2022-12-07T21:12:50.080Z,0.14
2022-12-07T21:16:43.165Z,0.15
2022-12-07T21:20:05.258Z,0.17
2022-12-07T21:24:03.416Z,0.17
2022-12-07T21:27:25.440Z,0.19
2022-12-07T21:31:16.962Z,0.17
2022-12-07T21:34:59.562Z,0.18
2022-12-07T21:38:40.886Z,0.21
2022-12-07T21:42:02.982Z,0.26
2022-12-07T21:45:44.689Z,0.28
2022-12-07T21:49:18.513Z,0.31
2022-12-07T21:52:56.373Z,0.31
2022-12-07T21:56:52.462Z,0.31
2022-12-07T22:00:17.680Z,0.34
2022-12-07T22:04:16.284Z,0.37
2022-12-07T22:07:38.106Z,0.39
2022-12-07T22:11:16.258Z,0.39
2022-12-07T22:15:14.396Z,0.41
2022-12-07T22:18:36.441Z,0.40
2022-12-07T22:22:15.825Z,0.40
2022-12-07T22:25:51.598Z,0.39
2022-12-07T22:29:29.529Z,0.37
2022-12-07T22:33:27.077Z,0.38
2022-12-07T22:36:49.302Z,0.41
2022-12-07T22:40:48.993Z,0.41
2022-12-07T22:44:11.245Z,0.42
2022-12-07T22:48:07.794Z,0.39
2022-12-07T22:51:35.709Z,0.36
2022-12-07T22:55:08.802Z,0.32
2022-12-07T22:58:46.448Z,0.30
2022-12-07T23:02:41.771Z,0.26
2022-12-07T23:06:14.098Z,0.20
2022-12-07T23:09:41.107Z,0.13
2022-12-07T23:13:37.737Z,0.09
2022-12-07T23:17:00.255Z,0.08
2022-12-07T23:20:56.988Z,0.11
2022-12-07T23:24:18.727Z,0.09
2022-12-07T23:27:56.506Z,0.06
2022-12-07T23:31:34.307Z,0.02
2022-12-07T23:35:30.706Z,0.02
2022-12-07T23:38:54.342Z,-0.01
2022-12-07T23:42:30.226Z,-0.03
2022-12-07T23:46:32.526Z,0.01
2022-12-07T23:50:13.712Z,0.07
2022-12-07T23:53:55.258Z,0.09
2022-12-07T23:57:35.642Z,0.12
